Time;durP1;ratioP1;P1;durP2;ratioP2;P2;SDS_P1;SDS_P2;PMS_P1;PMS_P2;Temp;Humidity;BMP_temperature;BMP_pressure;BME280_temperature;BME280_humidity;BME280_pressure;Samples;Min_cycle;Max_cycle;Signal;HPM_P1;HPM_P2
2021/12/18 00:01:43;;;;;;;30.90;20.50;;;;;;;;;;5055995;28;20437;-63
2021/12/18 00:04:10;;;;;;;27.70;19.50;;;;;;;;;;5054399;28;20417;-63
2021/12/18 00:06:36;;;;;;;34.90;22.00;;;;;;;;;;5055646;28;20425;-63
2021/12/18 00:09:02;;;;;;;29.07;19.20;;;;;;;;;;5055894;28;20394;-65
2021/12/18 00:11:28;;;;;;;34.33;20.80;;;;;;;;;;5055720;28;20410;-63
2021/12/18 00:13:54;;;;;;;30.77;19.67;;;;;;;;;;5055723;28;20398;-65
2021/12/18 00:16:21;;;;;;;28.87;18.57;;;;;;;;;;5055473;28;20452;-65
2021/12/18 00:18:50;;;;;;;34.30;18.37;;;;;;;;;;5055707;28;20898;-66
2021/12/18 00:21:18;;;;;;;32.33;17.70;;;;;;;;;;5055639;28;20541;-65
2021/12/18 00:23:44;;;;;;;28.53;16.77;;;;;;;;;;5055636;28;20890;-65
2021/12/18 00:26:10;;;;;;;33.47;19.17;;;;;;;;;;5054090;28;20430;-65
2021/12/18 00:28:36;;;;;;;28.93;17.60;;;;;;;;;;5055518;28;20390;-65
2021/12/18 00:31:02;;;;;;;27.87;17.20;;;;;;;;;;5055637;28;20811;-65
2021/12/18 00:33:28;;;;;;;28.67;17.80;;;;;;;;;;5055257;28;20405;-63
2021/12/18 00:35:54;;;;;;;25.57;15.60;;;;;;;;;;5056153;28;20474;-65
2021/12/18 00:38:29;;;;;;;31.47;18.40;;;;;;;;;;5055232;28;20402;-66
2021/12/18 00:44:04;;;;;;;29.87;16.70;;;;;;;;;;5034143;28;20410;-64
2021/12/18 00:46:34;;;;;;;31.43;17.10;;;;;;;;;;5055117;28;20375;-64
2021/12/18 00:49:00;;;;;;;31.20;17.37;;;;;;;;;;5055099;28;20382;-66
2021/12/18 00:51:26;;;;;;;36.07;19.23;;;;;;;;;;5054720;28;20398;-64
2021/12/18 00:53:53;;;;;;;36.57;17.43;;;;;;;;;;5054970;28;20413;-64
2021/12/18 00:56:19;;;;;;;32.53;16.97;;;;;;;;;;5054808;28;20839;-63
2021/12/18 00:58:45;;;;;;;30.03;16.00;;;;;;;;;;5054685;28;20398;-64
2021/12/18 01:01:12;;;;;;;31.93;17.60;;;;;;;;;;5054875;28;20449;-64
2021/12/18 01:03:40;;;;;;;30.47;17.27;;;;;;;;;;5054639;28;20916;-64
2021/12/18 01:06:06;;;;;;;35.07;16.60;;;;;;;;;;5053184;28;20433;-64
2021/12/18 01:08:32;;;;;;;36.30;19.37;;;;;;;;;;5054764;28;20394;-63
2021/12/18 01:14:38;;;;;;;29.40;15.30;;;;;;;;;;5054538;28;20422;-64
2021/12/18 01:16:41;;;;;;;30.33;17.03;;;;;;;;;;5047024;28;20409;-64
2021/12/18 01:24:30;;;;;;;36.07;17.60;;;;;;;;;;5054220;28;20442;-63
2021/12/18 01:26:57;;;;;;;32.93;17.60;;;;;;;;;;5054088;28;20418;-63
2021/12/18 01:29:23;;;;;;;32.17;18.33;;;;;;;;;;5054432;28;20761;-64
2021/12/18 01:31:49;;;;;;;30.30;16.77;;;;;;;;;;5054050;28;20433;-65
2021/12/18 01:34:15;;;;;;;36.37;19.00;;;;;;;;;;5054095;28;20489;-64
2021/12/18 01:36:41;;;;;;;35.00;19.40;;;;;;;;;;5054196;28;20402;-63
2021/12/18 01:39:07;;;;;;;34.17;18.40;;;;;;;;;;5054192;28;20401;-63
2021/12/18 01:41:49;;;;;;;33.50;18.20;;;;;;;;;;5052322;28;20606;-64
2021/12/18 01:52:33;;;;;;;34.37;18.70;;;;;;;;;;5054218;28;20377;-63
2021/12/18 01:54:59;;;;;;;34.50;19.57;;;;;;;;;;5054084;28;20421;-63
2021/12/18 01:57:25;;;;;;;36.03;19.97;;;;;;;;;;5053683;28;20413;-63
2021/12/18 01:59:52;;;;;;;41.00;19.67;;;;;;;;;;5053559;28;20406;-63
2021/12/18 02:02:20;;;;;;;39.70;19.73;;;;;;;;;;5046957;28;20461;-63
2021/12/18 02:04:46;;;;;;;31.20;18.60;;;;;;;;;;5042764;28;20427;-62
2021/12/18 02:07:12;;;;;;;40.60;19.83;;;;;;;;;;5033995;28;20401;-63
2021/12/18 02:12:11;;;;;;;38.03;19.93;;;;;;;;;;5034974;28;20886;-64
2021/12/18 02:22:56;;;;;;;30.00;17.20;;;;;;;;;;5033652;28;20399;-63
2021/12/18 02:25:24;;;;;;;31.33;19.40;;;;;;;;;;5033501;28;20911;-64
2021/12/18 02:27:52;;;;;;;35.20;18.90;;;;;;;;;;5033210;28;20903;-64
2021/12/18 02:30:21;;;;;;;31.97;17.50;;;;;;;;;;5033484;28;20816;-64
2021/12/18 02:32:47;;;;;;;30.97;16.93;;;;;;;;;;5033452;28;20403;-64
2021/12/18 02:35:23;;;;;;;34.33;18.43;;;;;;;;;;5033095;28;20565;-64
2021/12/18 02:37:49;;;;;;;25.87;18.20;;;;;;;;;;5031977;28;20921;-64
2021/12/18 02:42:59;;;;;;;32.47;18.20;;;;;;;;;;5033489;28;20378;-63
2021/12/18 02:45:25;;;;;;;32.50;18.50;;;;;;;;;;5031693;28;20434;-64
2021/12/18 02:47:53;;;;;;;37.67;20.10;;;;;;;;;;5032861;28;20758;-64
2021/12/18 02:50:19;;;;;;;33.07;18.97;;;;;;;;;;5033214;28;20391;-64
2021/12/18 02:52:45;;;;;;;31.60;16.87;;;;;;;;;;5034571;28;20395;-64
2021/12/18 02:55:11;;;;;;;33.40;18.60;;;;;;;;;;5036106;28;20406;-64
2021/12/18 02:57:38;;;;;;;38.40;20.23;;;;;;;;;;5037029;28;20387;-64
2021/12/18 03:00:04;;;;;;;41.33;20.17;;;;;;;;;;5037227;28;20748;-64
2021/12/18 03:02:36;;;;;;;47.57;21.43;;;;;;;;;;5036917;28;20438;-64
2021/12/18 03:05:06;;;;;;;39.10;19.03;;;;;;;;;;5036901;28;20465;-64
2021/12/18 03:07:32;;;;;;;43.23;21.43;;;;;;;;;;5036988;28;20387;-64
2021/12/18 03:21:51;;;;;;;41.77;20.77;;;;;;;;;;5036587;28;21075;-64
2021/12/18 03:23:50;;;;;;;38.87;19.73;;;;;;;;;;5036395;28;20982;-64
2021/12/18 03:26:16;;;;;;;37.43;21.53;;;;;;;;;;5036458;28;20445;-64
2021/12/18 03:28:42;;;;;;;37.33;18.83;;;;;;;;;;5036645;28;20465;-64
2021/12/18 03:31:09;;;;;;;47.93;23.60;;;;;;;;;;5036561;28;20403;-64
2021/12/18 03:33:35;;;;;;;39.43;20.20;;;;;;;;;;5039157;28;20445;-64
2021/12/18 03:36:01;;;;;;;38.37;20.77;;;;;;;;;;5045008;28;20426;-64
2021/12/18 03:38:27;;;;;;;41.20;20.30;;;;;;;;;;5034949;28;20472;-64
2021/12/18 03:40:53;;;;;;;35.57;17.30;;;;;;;;;;5050756;28;20506;-64
2021/12/18 03:43:19;;;;;;;36.27;18.57;;;;;;;;;;5056085;28;20413;-64
2021/12/18 03:45:45;;;;;;;38.00;17.30;;;;;;;;;;5055937;28;20975;-64
2021/12/18 03:48:12;;;;;;;36.93;20.77;;;;;;;;;;5056093;28;20398;-64
2021/12/18 03:50:38;;;;;;;41.30;21.30;;;;;;;;;;5055825;28;20776;-64
2021/12/18 03:53:04;;;;;;;34.93;19.73;;;;;;;;;;5056070;28;20424;-64
2021/12/18 03:55:30;;;;;;;39.27;19.70;;;;;;;;;;5055866;28;20443;-64
2021/12/18 03:57:57;;;;;;;43.87;21.70;;;;;;;;;;5056056;28;20407;-64
2021/12/18 04:00:23;;;;;;;42.37;19.93;;;;;;;;;;5051634;28;20505;-64
2021/12/18 04:02:49;;;;;;;38.50;18.40;;;;;;;;;;5036631;28;20413;-64
2021/12/18 04:05:15;;;;;;;34.30;18.83;;;;;;;;;;5035611;28;20421;-64
2021/12/18 04:07:45;;;;;;;39.60;19.40;;;;;;;;;;5035672;28;20482;-64
2021/12/18 04:10:13;;;;;;;37.17;18.00;;;;;;;;;;5035935;28;20402;-64
2021/12/18 04:12:39;;;;;;;43.00;18.10;;;;;;;;;;5035636;28;20481;-64
2021/12/18 04:15:05;;;;;;;34.93;16.77;;;;;;;;;;5034542;28;20455;-64
2021/12/18 04:17:32;;;;;;;38.07;17.83;;;;;;;;;;5035429;28;20406;-64
2021/12/18 04:19:58;;;;;;;34.30;17.10;;;;;;;;;;5035449;28;20474;-65
2021/12/18 04:22:24;;;;;;;36.93;18.47;;;;;;;;;;5035430;28;20448;-64
2021/12/18 04:24:50;;;;;;;32.90;17.67;;;;;;;;;;5035590;28;20806;-64
2021/12/18 04:27:16;;;;;;;31.07;16.73;;;;;;;;;;5035231;28;20422;-64
2021/12/18 04:29:42;;;;;;;30.03;16.77;;;;;;;;;;5035386;28;20426;-64
2021/12/18 04:32:08;;;;;;;33.07;16.40;;;;;;;;;;5037759;28;20419;-64
2021/12/18 04:34:34;;;;;;;30.10;16.47;;;;;;;;;;5054898;28;20905;-64
2021/12/18 04:37:00;;;;;;;33.23;17.70;;;;;;;;;;5055079;28;20394;-65
2021/12/18 04:39:26;;;;;;;31.37;15.87;;;;;;;;;;5044910;28;20505;-65
2021/12/18 04:41:57;;;;;;;32.13;15.80;;;;;;;;;;5054901;28;20442;-65
2021/12/18 04:44:24;;;;;;;27.37;15.57;;;;;;;;;;5055225;28;20433;-65
2021/12/18 04:46:50;;;;;;;25.73;15.50;;;;;;;;;;5054860;28;20402;-65
2021/12/18 04:49:17;;;;;;;24.43;15.03;;;;;;;;;;5054862;28;20553;-64
2021/12/18 04:51:43;;;;;;;32.23;16.33;;;;;;;;;;5054828;28;20495;-64
2021/12/18 04:54:10;;;;;;;26.23;14.60;;;;;;;;;;5054843;28;20426;-65
2021/12/18 04:56:36;;;;;;;25.03;14.23;;;;;;;;;;5054940;28;20402;-65
2021/12/18 04:59:03;;;;;;;32.03;16.13;;;;;;;;;;5054703;28;20402;-64
2021/12/18 05:01:29;;;;;;;31.67;15.07;;;;;;;;;;5054716;28;20862;-65
2021/12/18 05:03:55;;;;;;;29.00;13.37;;;;;;;;;;5054964;28;20398;-64
2021/12/18 05:06:22;;;;;;;24.67;14.13;;;;;;;;;;5054949;28;20874;-64
2021/12/18 05:08:48;;;;;;;29.50;13.80;;;;;;;;;;5054984;28;20402;-64
2021/12/18 05:11:14;;;;;;;30.20;14.93;;;;;;;;;;5054534;28;20402;-64
2021/12/18 05:13:40;;;;;;;27.00;14.60;;;;;;;;;;5054881;28;20398;-64
2021/12/18 05:16:06;;;;;;;30.97;14.50;;;;;;;;;;5053632;28;20425;-64
2021/12/18 05:18:32;;;;;;;26.27;13.77;;;;;;;;;;5052126;28;20525;-64
2021/12/18 05:20:58;;;;;;;22.03;12.10;;;;;;;;;;5034258;28;20442;-64
2021/12/18 05:23:24;;;;;;;22.63;12.00;;;;;;;;;;5034289;28;20771;-65
2021/12/18 05:25:50;;;;;;;23.40;12.70;;;;;;;;;;5061657;23;21021;-60
2021/12/18 05:28:16;;;;;;;22.63;12.03;;;;;;;;;;5053984;28;20501;-60
2021/12/18 05:30:42;;;;;;;18.67;11.47;;;;;;;;;;5054153;28;20386;-60
2021/12/18 05:33:10;;;;;;;25.13;12.60;;;;;;;;;;5054310;28;20810;-60
2021/12/18 05:35:36;;;;;;;20.87;12.00;;;;;;;;;;5054094;28;20413;-60
2021/12/18 05:38:05;;;;;;;26.43;13.63;;;;;;;;;;5053997;28;20419;-61
2021/12/18 05:40:31;;;;;;;21.93;11.70;;;;;;;;;;5053915;28;20392;-61
2021/12/18 05:42:58;;;;;;;20.60;12.77;;;;;;;;;;5054462;28;20745;-61
2021/12/18 05:45:24;;;;;;;20.53;11.07;;;;;;;;;;5053734;28;20827;-60
2021/12/18 05:47:50;;;;;;;24.27;12.80;;;;;;;;;;5053689;28;20873;-60
2021/12/18 05:50:17;;;;;;;23.33;12.50;;;;;;;;;;5053620;28;20398;-60
2021/12/18 05:52:45;;;;;;;19.53;10.67;;;;;;;;;;5053576;28;20406;-60
2021/12/18 05:55:11;;;;;;;21.20;12.20;;;;;;;;;;5053922;28;20410;-60
2021/12/18 05:57:37;;;;;;;22.33;11.80;;;;;;;;;;5053467;28;20450;-60
2021/12/18 06:00:05;;;;;;;17.80;9.53;;;;;;;;;;5053560;28;20393;-60
2021/12/18 06:02:31;;;;;;;21.77;11.67;;;;;;;;;;5053454;28;20441;-60
2021/12/18 06:04:58;;;;;;;21.80;12.13;;;;;;;;;;5053474;28;20441;-60
2021/12/18 06:07:43;;;;;;;25.60;13.07;;;;;;;;;;5053346;28;20910;-60
2021/12/18 06:10:09;;;;;;;20.90;12.23;;;;;;;;;;5053399;28;20388;-60
2021/12/18 06:12:36;;;;;;;20.23;12.33;;;;;;;;;;5054346;28;20401;-61
2021/12/18 06:15:02;;;;;;;19.10;11.50;;;;;;;;;;5053515;28;20413;-60
2021/12/18 06:17:28;;;;;;;30.17;13.53;;;;;;;;;;5053192;28;20467;-60
2021/12/18 06:19:54;;;;;;;26.13;13.00;;;;;;;;;;5053258;28;20398;-59
2021/12/18 06:22:20;;;;;;;26.80;13.33;;;;;;;;;;5052985;28;20454;-61
2021/12/18 06:24:46;;;;;;;20.63;12.10;;;;;;;;;;5053002;28;20434;-59
2021/12/18 06:27:12;;;;;;;19.70;11.37;;;;;;;;;;5052894;28;20551;-62
2021/12/18 06:29:39;;;;;;;21.90;12.43;;;;;;;;;;5053239;28;20405;-60
2021/12/18 06:32:05;;;;;;;18.93;10.90;;;;;;;;;;5053399;28;20495;-60
2021/12/18 06:34:31;;;;;;;19.47;11.40;;;;;;;;;;5051880;28;20401;-59
2021/12/18 06:36:57;;;;;;;23.57;14.07;;;;;;;;;;5053327;28;20433;-59
2021/12/18 06:39:23;;;;;;;17.30;10.93;;;;;;;;;;5053241;28;20506;-62
2021/12/18 06:41:50;;;;;;;20.07;10.53;;;;;;;;;;5052959;28;20454;-61
2021/12/18 06:44:16;;;;;;;17.40;9.93;;;;;;;;;;5053304;28;20481;-61
2021/12/18 06:46:42;;;;;;;20.00;9.93;;;;;;;;;;5053189;28;20422;-61
2021/12/18 06:49:10;;;;;;;18.20;10.80;;;;;;;;;;5053150;28;20402;-61
2021/12/18 06:51:36;;;;;;;18.87;9.93;;;;;;;;;;5053172;28;20425;-61
2021/12/18 06:54:02;;;;;;;17.73;10.17;;;;;;;;;;5052814;28;20412;-61
2021/12/18 06:56:28;;;;;;;15.47;9.10;;;;;;;;;;5052828;28;20487;-61
2021/12/18 06:58:54;;;;;;;15.93;9.30;;;;;;;;;;5052754;28;20890;-61
2021/12/18 07:01:20;;;;;;;15.50;10.33;;;;;;;;;;5052642;28;20449;-61
2021/12/18 07:03:46;;;;;;;17.00;9.70;;;;;;;;;;5052915;28;20394;-61
2021/12/18 07:06:12;;;;;;;15.83;8.93;;;;;;;;;;5052880;28;20426;-60
2021/12/18 07:08:38;;;;;;;19.53;9.87;;;;;;;;;;5051822;28;20796;-59
2021/12/18 07:11:04;;;;;;;13.30;8.77;;;;;;;;;;5052243;28;20564;-60
2021/12/18 07:13:30;;;;;;;17.33;9.07;;;;;;;;;;5050877;28;20943;-66
2021/12/18 07:15:56;;;;;;;16.83;10.53;;;;;;;;;;5052439;28;20788;-59
2021/12/18 07:18:22;;;;;;;15.80;8.70;;;;;;;;;;5052246;28;20421;-59
2021/12/18 07:20:50;;;;;;;19.30;10.33;;;;;;;;;;5052361;28;20501;-59
2021/12/18 07:23:16;;;;;;;17.30;10.03;;;;;;;;;;5052466;28;20493;-61
2021/12/18 07:25:42;;;;;;;14.20;9.13;;;;;;;;;;5051867;28;20417;-64
2021/12/18 07:28:08;;;;;;;18.67;10.70;;;;;;;;;;5051409;28;20478;-60
2021/12/18 07:30:34;;;;;;;18.37;9.90;;;;;;;;;;5051867;28;20406;-66
2021/12/18 07:33:00;;;;;;;15.27;9.77;;;;;;;;;;5052908;28;20437;-61
2021/12/18 07:35:27;;;;;;;19.53;10.37;;;;;;;;;;5052188;28;20390;-66
2021/12/18 07:37:53;;;;;;;17.37;10.47;;;;;;;;;;5051126;28;20422;-61
2021/12/18 07:40:19;;;;;;;19.93;12.13;;;;;;;;;;5055592;28;20472;-59
2021/12/18 07:42:45;;;;;;;19.57;10.47;;;;;;;;;;5057206;28;20831;-63
2021/12/18 07:45:11;;;;;;;17.80;10.23;;;;;;;;;;5055299;28;20410;-65
2021/12/18 07:47:37;;;;;;;20.77;11.13;;;;;;;;;;5058103;28;20438;-65
2021/12/18 07:50:07;;;;;;;20.77;11.53;;;;;;;;;;5055429;28;20406;-63
2021/12/18 07:52:34;;;;;;;21.83;11.77;;;;;;;;;;5060811;28;20466;-63
2021/12/18 07:55:00;;;;;;;16.37;9.17;;;;;;;;;;5068939;28;20417;-63
2021/12/18 07:57:26;;;;;;;17.23;10.67;;;;;;;;;;5070203;28;20441;-62
2021/12/18 07:59:52;;;;;;;22.20;11.37;;;;;;;;;;5057755;28;20440;-64
2021/12/18 08:02:18;;;;;;;20.27;11.23;;;;;;;;;;5058773;28;20471;-64
2021/12/18 08:04:44;;;;;;;20.73;12.93;;;;;;;;;;5060234;28;20420;-64
2021/12/18 08:07:10;;;;;;;20.67;11.50;;;;;;;;;;5059322;28;20837;-63
2021/12/18 08:09:36;;;;;;;18.30;10.90;;;;;;;;;;5058750;28;20898;-64
2021/12/18 08:12:02;;;;;;;20.63;11.40;;;;;;;;;;5057967;28;20555;-63
2021/12/18 08:14:30;;;;;;;26.63;10.37;;;;;;;;;;5060847;28;20409;-63
2021/12/18 08:16:56;;;;;;;24.20;12.93;;;;;;;;;;5060829;28;20779;-64
2021/12/18 08:19:22;;;;;;;18.00;10.20;;;;;;;;;;5057004;28;20477;-66
2021/12/18 08:21:48;;;;;;;19.90;11.60;;;;;;;;;;5058770;28;20482;-64
2021/12/18 08:24:14;;;;;;;18.90;10.17;;;;;;;;;;5058386;28;20394;-63
2021/12/18 08:26:40;;;;;;;18.93;11.10;;;;;;;;;;5057696;28;20472;-64
2021/12/18 08:29:06;;;;;;;18.77;10.90;;;;;;;;;;5056255;28;20426;-59
2021/12/18 08:31:32;;;;;;;20.00;11.50;;;;;;;;;;5055213;28;20780;-60
2021/12/18 08:33:58;;;;;;;23.77;11.83;;;;;;;;;;5058627;28;20441;-59
2021/12/18 08:36:25;;;;;;;20.37;11.50;;;;;;;;;;5053806;28;20433;-59
2021/12/18 08:38:51;;;;;;;20.67;11.63;;;;;;;;;;5059005;28;20422;-63
2021/12/18 08:41:19;;;;;;;20.33;12.53;;;;;;;;;;5060250;28;20453;-61
2021/12/18 08:43:45;;;;;;;23.50;12.10;;;;;;;;;;5063136;28;20413;-63
2021/12/18 08:46:11;;;;;;;21.90;12.33;;;;;;;;;;5062953;28;20430;-63
2021/12/18 08:48:37;;;;;;;24.43;12.80;;;;;;;;;;5063032;28;20398;-64
2021/12/18 08:51:03;;;;;;;21.17;12.07;;;;;;;;;;5052990;28;20471;-62
2021/12/18 08:53:29;;;;;;;25.13;14.13;;;;;;;;;;5055975;28;20510;-63
2021/12/18 08:55:55;;;;;;;25.10;12.60;;;;;;;;;;5061106;28;20425;-63
2021/12/18 08:58:22;;;;;;;26.03;13.03;;;;;;;;;;5054771;28;20418;-61
2021/12/18 09:00:48;;;;;;;24.77;13.93;;;;;;;;;;5053591;28;20496;-62
2021/12/18 09:03:14;;;;;;;23.80;13.20;;;;;;;;;;5054364;28;20406;-61
2021/12/18 09:05:40;;;;;;;30.50;15.60;;;;;;;;;;5054488;28;20406;-62
2021/12/18 09:08:06;;;;;;;23.80;12.87;;;;;;;;;;5054472;28;20406;-61
2021/12/18 09:10:32;;;;;;;28.90;13.03;;;;;;;;;;5054567;28;20401;-61
2021/12/18 09:12:59;;;;;;;23.83;13.50;;;;;;;;;;5054305;28;20410;-60
2021/12/18 09:15:26;;;;;;;25.03;14.00;;;;;;;;;;5054202;28;20940;-63
2021/12/18 09:17:52;;;;;;;28.93;16.10;;;;;;;;;;5054342;28;20505;-61
2021/12/18 09:20:18;;;;;;;25.23;13.50;;;;;;;;;;5054169;28;20408;-62
2021/12/18 09:22:44;;;;;;;25.13;13.70;;;;;;;;;;5054189;28;20453;-63
2021/12/18 09:25:11;;;;;;;30.40;16.20;;;;;;;;;;5054479;28;20398;-62
2021/12/18 09:27:37;;;;;;;26.83;13.43;;;;;;;;;;5054260;28;20451;-63
2021/12/18 09:30:04;;;;;;;26.97;14.77;;;;;;;;;;5054502;28;20786;-62
2021/12/18 09:32:30;;;;;;;25.07;14.13;;;;;;;;;;5053941;28;20410;-64
2021/12/18 09:34:56;;;;;;;28.57;16.37;;;;;;;;;;5054307;28;20410;-64
2021/12/18 09:37:23;;;;;;;22.60;12.93;;;;;;;;;;5053785;28;20571;-62
2021/12/18 09:39:49;;;;;;;31.13;16.53;;;;;;;;;;5053742;28;20402;-62
2021/12/18 09:42:15;;;;;;;26.03;13.70;;;;;;;;;;5053839;28;20534;-62
2021/12/18 09:44:41;;;;;;;26.00;14.70;;;;;;;;;;5053811;28;20482;-60
2021/12/18 09:47:07;;;;;;;32.13;16.00;;;;;;;;;;5053723;28;20479;-59
2021/12/18 09:49:33;;;;;;;27.97;13.93;;;;;;;;;;5053952;28;20452;-63
2021/12/18 09:52:00;;;;;;;26.23;14.53;;;;;;;;;;5053943;28;20402;-63
2021/12/18 09:54:26;;;;;;;26.47;13.57;;;;;;;;;;5053841;28;20403;-64
2021/12/18 09:56:53;;;;;;;27.57;15.50;;;;;;;;;;5053624;28;20422;-63
2021/12/18 09:59:19;;;;;;;25.27;14.27;;;;;;;;;;5052290;28;20459;-63
2021/12/18 10:01:45;;;;;;;28.93;16.00;;;;;;;;;;5052920;28;20807;-61
2021/12/18 10:04:27;;;;;;;24.77;15.20;;;;;;;;;;5053618;28;20960;-62
2021/12/18 10:06:53;;;;;;;28.90;15.13;;;;;;;;;;5053499;28;20414;-63
2021/12/18 10:09:20;;;;;;;28.30;15.77;;;;;;;;;;5053603;28;20406;-63
2021/12/18 10:11:46;;;;;;;25.07;14.53;;;;;;;;;;5053218;28;20745;-64
2021/12/18 10:14:12;;;;;;;28.60;16.03;;;;;;;;;;5053250;28;20405;-63
2021/12/18 10:16:48;;;;;;;25.93;15.07;;;;;;;;;;5053243;28;20432;-63
2021/12/18 10:19:25;;;;;;;23.87;12.97;;;;;;;;;;5053263;28;20398;-63
2021/12/18 10:21:59;;;;;;;26.30;14.70;;;;;;;;;;5053359;28;20469;-63
2021/12/18 10:24:25;;;;;;;28.67;16.50;;;;;;;;;;5053217;28;20391;-63
2021/12/18 10:26:51;;;;;;;30.30;16.63;;;;;;;;;;5052667;28;20433;-63
2021/12/18 10:29:29;;;;;;;22.43;13.80;;;;;;;;;;5053090;28;20394;-62
2021/12/18 10:31:56;;;;;;;26.10;14.23;;;;;;;;;;5053003;28;20401;-63
2021/12/18 10:34:24;;;;;;;26.23;14.33;;;;;;;;;;5053137;28;20406;-63
2021/12/18 10:37:08;;;;;;;26.20;15.50;;;;;;;;;;5052913;28;20429;-62
2021/12/18 10:39:35;;;;;;;27.17;13.57;;;;;;;;;;5053102;28;20421;-62
2021/12/18 10:42:19;;;;;;;24.77;13.50;;;;;;;;;;5052869;28;20816;-61
2021/12/18 10:45:04;;;;;;;23.33;12.40;;;;;;;;;;5052765;28;20401;-63
2021/12/18 10:47:48;;;;;;;27.30;14.57;;;;;;;;;;5052845;28;20417;-62
2021/12/18 10:50:19;;;;;;;24.13;13.93;;;;;;;;;;5052945;28;20711;-63
2021/12/18 10:52:45;;;;;;;30.00;15.77;;;;;;;;;;5052762;28;20406;-63
2021/12/18 10:55:11;;;;;;;31.87;16.73;;;;;;;;;;5052744;28;20535;-62
2021/12/18 10:57:37;;;;;;;24.43;14.13;;;;;;;;;;5052863;28;20516;-61
2021/12/18 11:00:04;;;;;;;27.27;15.73;;;;;;;;;;5052961;28;20410;-62
2021/12/18 11:02:30;;;;;;;28.20;15.47;;;;;;;;;;5053575;28;20456;-63
2021/12/18 11:05:15;;;;;;;35.20;16.40;;;;;;;;;;5053145;28;20417;-62
2021/12/18 11:07:44;;;;;;;27.17;13.87;;;;;;;;;;5052587;28;20417;-62
2021/12/18 11:15:54;;;;;;;23.87;12.73;;;;;;;;;;5056920;28;20397;-58
2021/12/18 11:18:20;;;;;;;25.93;14.10;;;;;;;;;;5056677;28;20403;-62
2021/12/18 11:20:51;;;;;;;22.03;13.57;;;;;;;;;;5056845;28;20394;-62
2021/12/18 11:23:21;;;;;;;29.00;14.17;;;;;;;;;;5056670;28;20486;-62
2021/12/18 11:25:49;;;;;;;28.30;16.30;;;;;;;;;;5056337;28;20414;-62
2021/12/18 11:28:16;;;;;;;23.80;13.93;;;;;;;;;;5057058;28;20955;-61
2021/12/18 11:30:42;;;;;;;22.77;13.70;;;;;;;;;;5056818;28;20833;-61
2021/12/18 11:33:08;;;;;;;24.47;15.13;;;;;;;;;;5056513;28;20405;-61
2021/12/18 11:35:36;;;;;;;25.17;13.67;;;;;;;;;;5056425;28;20434;-62
2021/12/18 11:38:04;;;;;;;28.13;12.90;;;;;;;;;;5056657;28;20425;-62
2021/12/18 11:40:34;;;;;;;30.70;15.90;;;;;;;;;;5056652;28;20902;-62
2021/12/18 11:43:00;;;;;;;24.87;13.83;;;;;;;;;;5054908;28;20453;-59
2021/12/18 11:45:34;;;;;;;31.57;13.57;;;;;;;;;;5056095;28;20409;-62
2021/12/18 11:48:00;;;;;;;22.27;12.40;;;;;;;;;;5056146;28;20442;-61
2021/12/18 11:50:27;;;;;;;22.17;12.77;;;;;;;;;;5056392;28;20768;-61
2021/12/18 11:52:56;;;;;;;20.67;12.20;;;;;;;;;;5056462;28;20405;-61
2021/12/18 11:55:22;;;;;;;26.17;14.07;;;;;;;;;;5056389;28;20551;-60
2021/12/18 11:57:50;;;;;;;21.37;12.57;;;;;;;;;;5055802;28;20426;-59
2021/12/18 12:00:16;;;;;;;21.40;12.40;;;;;;;;;;5056243;28;20405;-60
2021/12/18 12:02:47;;;;;;;25.17;13.50;;;;;;;;;;5055850;28;20456;-61
2021/12/18 12:05:13;;;;;;;20.47;12.83;;;;;;;;;;5056304;28;20394;-61
2021/12/18 12:07:39;;;;;;;22.50;13.50;;;;;;;;;;5056018;28;20414;-67
2021/12/18 12:10:06;;;;;;;21.57;12.03;;;;;;;;;;5056173;28;20540;-61
2021/12/18 12:12:53;;;;;;;24.00;12.10;;;;;;;;;;5055942;28;20409;-61
2021/12/18 12:15:20;;;;;;;23.50;12.10;;;;;;;;;;5055988;28;20406;-61
2021/12/18 12:17:57;;;;;;;24.00;12.53;;;;;;;;;;5056778;28;20528;-59
2021/12/18 12:20:38;;;;;;;22.70;12.30;;;;;;;;;;5056991;28;20921;-60
2021/12/18 12:23:05;;;;;;;27.07;14.30;;;;;;;;;;5056453;28;20456;-58
2021/12/18 12:25:44;;;;;;;19.90;12.70;;;;;;;;;;5057106;28;20406;-56
2021/12/18 12:28:14;;;;;;;19.33;10.67;;;;;;;;;;5057659;28;20809;-58
2021/12/18 12:30:46;;;;;;;22.57;12.20;;;;;;;;;;5057069;28;20394;-59
2021/12/18 12:33:32;;;;;;;18.93;12.13;;;;;;;;;;5057155;28;20411;-59
2021/12/18 12:36:15;;;;;;;20.83;12.57;;;;;;;;;;5056263;28;20397;-58
2021/12/18 12:38:57;;;;;;;19.93;12.47;;;;;;;;;;5056263;28;20400;-59
2021/12/18 12:41:26;;;;;;;21.37;12.87;;;;;;;;;;5054844;28;20461;-60
2021/12/18 12:43:53;;;;;;;23.83;13.33;;;;;;;;;;5056667;28;20425;-59
2021/12/18 12:46:20;;;;;;;23.60;13.07;;;;;;;;;;5056520;28;20421;-60
2021/12/18 12:49:03;;;;;;;23.40;12.77;;;;;;;;;;5056468;28;20763;-60
2021/12/18 12:51:48;;;;;;;25.30;13.50;;;;;;;;;;5055324;28;20420;-60
2021/12/18 12:54:33;;;;;;;22.07;11.70;;;;;;;;;;5057069;28;20773;-59
2021/12/18 12:57:17;;;;;;;22.93;11.40;;;;;;;;;;5056314;28;20437;-59
2021/12/18 12:59:43;;;;;;;19.90;12.13;;;;;;;;;;5055977;28;20389;-61
2021/12/18 13:02:09;;;;;;;18.97;10.93;;;;;;;;;;5055785;28;20450;-60
2021/12/18 13:04:35;;;;;;;23.30;13.00;;;;;;;;;;5055752;28;20760;-60
2021/12/18 13:07:06;;;;;;;22.73;12.87;;;;;;;;;;5055876;28;20500;-59
2021/12/18 13:09:33;;;;;;;25.00;14.10;;;;;;;;;;5056394;28;20455;-60
2021/12/18 13:12:05;;;;;;;18.03;11.80;;;;;;;;;;5055778;28;20394;-61
2021/12/18 13:14:38;;;;;;;23.17;12.37;;;;;;;;;;5056457;28;20894;-59
2021/12/18 13:17:21;;;;;;;21.50;13.17;;;;;;;;;;5056519;28;20426;-60
2021/12/18 13:20:02;;;;;;;22.67;12.80;;;;;;;;;;5055855;28;20409;-59
2021/12/18 13:22:32;;;;;;;23.70;12.97;;;;;;;;;;5056313;28;20464;-60
2021/12/18 13:25:05;;;;;;;22.10;13.17;;;;;;;;;;5057533;28;20398;-64
2021/12/18 13:27:31;;;;;;;25.23;14.47;;;;;;;;;;5057775;28;20446;-62
2021/12/18 13:30:13;;;;;;;24.80;13.40;;;;;;;;;;5058397;28;20404;-61
2021/12/18 13:32:50;;;;;;;23.63;13.73;;;;;;;;;;5057111;28;20411;-61
2021/12/18 13:35:17;;;;;;;27.47;14.03;;;;;;;;;;5057637;28;20160;-61
2021/12/18 13:37:43;;;;;;;24.90;13.57;;;;;;;;;;5057167;28;20462;-62
2021/12/18 13:40:18;;;;;;;26.07;14.00;;;;;;;;;;5058123;28;20886;-61
2021/12/18 13:42:44;;;;;;;28.57;15.37;;;;;;;;;;5057469;28;20566;-61
2021/12/18 13:45:10;;;;;;;24.80;13.30;;;;;;;;;;5057655;28;20400;-61
2021/12/18 13:47:38;;;;;;;24.17;14.07;;;;;;;;;;5056673;28;20421;-61
2021/12/18 13:50:11;;;;;;;27.33;15.87;;;;;;;;;;5055115;28;20926;-61
2021/12/18 13:52:37;;;;;;;30.40;14.97;;;;;;;;;;5055787;28;20836;-60
2021/12/18 13:55:18;;;;;;;25.93;13.73;;;;;;;;;;5055312;28;20898;-61
2021/12/18 13:58:01;;;;;;;26.90;15.33;;;;;;;;;;5055863;28;20447;-61
2021/12/18 14:00:27;;;;;;;24.33;13.70;;;;;;;;;;5055947;28;20402;-61
2021/12/18 14:02:54;;;;;;;25.40;12.40;;;;;;;;;;5056118;28;20458;-61
2021/12/18 14:05:20;;;;;;;25.33;12.63;;;;;;;;;;5057169;28;20422;-60
2021/12/18 14:07:46;;;;;;;24.23;14.80;;;;;;;;;;5056132;28;20504;-61
2021/12/18 14:10:13;;;;;;;25.77;14.13;;;;;;;;;;5056613;28;20512;-61
2021/12/18 14:12:39;;;;;;;24.10;13.17;;;;;;;;;;5056290;28;20516;-61
2021/12/18 14:15:05;;;;;;;24.30;13.80;;;;;;;;;;5056334;28;20408;-61
2021/12/18 14:17:32;;;;;;;26.33;12.67;;;;;;;;;;5056283;28;20451;-63
2021/12/18 14:20:09;;;;;;;26.43;13.40;;;;;;;;;;5057232;28;20485;-62
2021/12/18 14:22:36;;;;;;;25.50;12.97;;;;;;;;;;5057071;28;20996;-62
2021/12/18 14:25:07;;;;;;;27.60;13.93;;;;;;;;;;5056625;28;20430;-63
2021/12/18 14:27:39;;;;;;;23.13;12.77;;;;;;;;;;5056972;28;20452;-62
2021/12/18 14:30:12;;;;;;;25.63;14.63;;;;;;;;;;5057385;28;20413;-62
2021/12/18 14:32:39;;;;;;;26.93;13.60;;;;;;;;;;5056340;28;20394;-62
2021/12/18 14:35:07;;;;;;;26.30;14.70;;;;;;;;;;5056436;28;20406;-61
2021/12/18 14:37:33;;;;;;;29.27;14.10;;;;;;;;;;5056801;28;20445;-62
2021/12/18 14:39:59;;;;;;;24.47;12.40;;;;;;;;;;5056642;28;20891;-62
2021/12/18 14:42:36;;;;;;;25.67;13.73;;;;;;;;;;5056216;28;20449;-62
2021/12/18 14:45:21;;;;;;;21.47;12.30;;;;;;;;;;5056561;28;20383;-62
2021/12/18 14:47:49;;;;;;;28.70;14.13;;;;;;;;;;5056042;28;20413;-62
2021/12/18 14:50:15;;;;;;;22.70;12.90;;;;;;;;;;5055782;28;20437;-62
2021/12/18 14:52:52;;;;;;;25.97;14.17;;;;;;;;;;5056531;28;20687;-62
2021/12/18 14:55:25;;;;;;;30.90;15.80;;;;;;;;;;5055489;28;20761;-63
2021/12/18 14:58:12;;;;;;;29.97;15.60;;;;;;;;;;5054973;28;20426;-62
2021/12/18 15:00:44;;;;;;;26.53;15.40;;;;;;;;;;5054589;28;20434;-62
2021/12/18 15:03:15;;;;;;;25.53;15.70;;;;;;;;;;5053463;28;20552;-63
2021/12/18 15:05:53;;;;;;;22.20;14.20;;;;;;;;;;5054625;28;20394;-64
2021/12/18 15:08:21;;;;;;;22.03;14.37;;;;;;;;;;5055090;28;20406;-62
2021/12/18 15:10:47;;;;;;;27.50;15.17;;;;;;;;;;5055780;28;20394;-63
2021/12/18 15:13:14;;;;;;;27.00;16.57;;;;;;;;;;5055920;28;20425;-63
2021/12/18 15:15:40;;;;;;;33.40;16.60;;;;;;;;;;5056086;28;20406;-63